To NAV CANADA Home Page Login to a new session Search on AWWS site Feedback and Comments Disclaimer Vers la page française équivalente Tips FAQ What's new on the site To the Forecasts and Observations / NOTAM section To "File a Flight Plan" website Publications and other links Update of the User's profile FIC Telephone Numbers My Weather Data Folder Route Weather Data Regional Weather Data Local Weather Data To the Forecasts and Observations / NOTAM section
Request Generated 03/31/2015 at 00:14:53 UTC . Weather information available at that time is displayed.

METAR/TAF

MONTREAL/MONTREAL INTL (MIRABEL)/QC    

METAR CYMX 310000Z 25008KT 25SM SCT008 BKN030 BKN060 OVC120 02/00
A2959 RMK SF3SC2SC2AC1 SLP023=
SPECI CYMX 302312Z 25009G17KT 210V280 3SM -RASN BKN008 OVC019 02/M00
A2957 RMK SN3SF2SC3 SLP018=
METAR CYMX 302300Z 24009G17KT 10SM -RA VCSH SCT009 BKN015 BKN030
OVC060 02/M00 A2957 RMK SN2SF2SC2SC1SC1 VIS W QUAD 3 VIS NE 5 VIS S
25 SLP017=
METAR CYMX 302200Z 25011G27KT 15SM -RA VCSH SCT009 BKN015 BKN030
OVC059 02/M00 A2955 RMK SHGR2SF2SC2SC1SC1 VIS NE QUAD 3 SLP009=

TAF CYMX 302340Z 3100/3124 25010G20KT 3SM -SNRA OVC008 TEMPO
3100/3103 P6SM NSW SCT008 BKN030
FM310300 28010KT P6SM FEW030 BKN080
FM311000 28006KT P6SM SKC
FM311200 27005KT P6SM SKC
BECMG 3116/3118 28012KT
RMK NXT FCST BY 310600Z=
Your time UTC time
Weather data provided by Environment Canada and NAV CANADA